Time,TemperatureF,DewpointF,PressureIn,WindDirection,WindDirectionDegrees,WindSpeedMPH,WindSpeedGustMPH,Humidity,HourlyPrecipIn,Conditions,Clouds,dailyrainin,SoftwareType,DateUTC
2013-06-30 00:02:00,67.9,65.0,29.69,ENE,61,0.0,-999.0,90,-99.99,,,0.12,weatherlink.com 1.10,2013-06-30 04:02:00,
2013-06-30 00:18:00,67.8,65.0,29.69,ENE,67,0.0,-999.0,90,-99.99,,,0.12,weatherlink.com 1.10,2013-06-30 04:18:00,
2013-06-30 00:32:00,67.2,65.0,29.68,ENE,69,0.0,-999.0,92,-99.99,,,0.12,weatherlink.com 1.10,2013-06-30 04:32:00,
2013-06-30 00:47:00,67.1,65.0,29.69,ENE,69,0.0,-999.0,93,-99.99,,,0.12,weatherlink.com 1.10,2013-06-30 04:47:00,
2013-06-30 01:02:00,67.0,65.0,29.69,ENE,70,0.0,-999.0,93,-99.99,,,0.12,weatherlink.com 1.10,2013-06-30 05:02:00,
2013-06-30 01:19:00,67.0,65.0,29.69,ENE,70,0.0,-999.0,93,-99.99,,,0.00,weatherlink.com 1.10,2013-06-30 05:19:00,
2013-06-30 01:32:00,66.5,65.0,29.68,ENE,69,0.0,-999.0,93,-99.99,,,0.00,weatherlink.com 1.10,2013-06-30 05:32:00,
2013-06-30 01:47:00,66.3,64.0,29.68,ENE,69,0.0,-999.0,93,-99.99,,,0.00,weatherlink.com 1.10,2013-06-30 05:47:00,
2013-06-30 02:02:00,66.2,65.0,29.69,ENE,69,0.0,-999.0,94,-99.99,,,0.01,weatherlink.com 1.10,2013-06-30 06:02:00,
2013-06-30 02:18:00,66.3,65.0,29.70,ENE,69,0.0,-999.0,94,-99.99,,,0.01,weatherlink.com 1.10,2013-06-30 06:18:00,
2013-06-30 02:32:00,66.2,65.0,29.69,ENE,69,0.0,-999.0,94,-99.99,,,0.01,weatherlink.com 1.10,2013-06-30 06:32:00,
2013-06-30 02:47:00,66.2,65.0,29.68,ENE,69,0.0,-999.0,94,-99.99,,,0.01,weatherlink.com 1.10,2013-06-30 06:47:00,
2013-06-30 03:02:00,66.1,64.0,29.68,ENE,69,0.0,-999.0,94,-99.99,,,0.01,weatherlink.com 1.10,2013-06-30 07:02:00,
2013-06-30 03:18:00,66.1,64.0,29.68,ENE,69,0.0,-999.0,94,-99.99,,,0.01,weatherlink.com 1.10,2013-06-30 07:18:00,
2013-06-30 03:32:00,66.1,65.0,29.67,ENE,68,0.0,-999.0,95,-99.99,,,0.01,weatherlink.com 1.10,2013-06-30 07:32:00,
2013-06-30 03:47:00,65.9,65.0,29.68,ENE,68,0.0,-999.0,95,-99.99,,,0.01,weatherlink.com 1.10,2013-06-30 07:47:00,
2013-06-30 04:02:00,65.6,64.0,29.67,ENE,67,0.0,-999.0,94,-99.99,,,0.01,weatherlink.com 1.10,2013-06-30 08:02:00,
2013-06-30 04:18:00,65.5,64.0,29.67,ENE,67,0.0,-999.0,94,-99.99,,,0.01,weatherlink.com 1.10,2013-06-30 08:18:00,
2013-06-30 04:32:00,64.9,63.0,29.67,ENE,67,0.0,-999.0,94,-99.99,,,0.01,weatherlink.com 1.10,2013-06-30 08:32:00,
2013-06-30 04:47:00,64.3,63.0,29.68,ENE,67,0.0,-999.0,94,-99.99,,,0.01,weatherlink.com 1.10,2013-06-30 08:47:00,
2013-06-30 05:02:00,64.0,63.0,29.68,ENE,67,0.0,-999.0,95,-99.99,,,0.01,weatherlink.com 1.10,2013-06-30 09:02:00,
2013-06-30 05:18:00,64.0,63.0,29.68,ENE,67,0.0,-999.0,95,-99.99,,,0.01,weatherlink.com 1.10,2013-06-30 09:18:00,
2013-06-30 05:32:00,63.4,62.0,29.69,ENE,67,0.0,-999.0,95,-99.99,,,0.01,weatherlink.com 1.10,2013-06-30 09:32:00,
2013-06-30 05:47:00,63.0,61.0,29.70,ENE,67,0.0,-999.0,94,-99.99,,,0.01,weatherlink.com 1.10,2013-06-30 09:47:00,
2013-06-30 06:02:00,62.9,62.0,29.70,ENE,66,0.0,-999.0,95,-99.99,,,0.01,weatherlink.com 1.10,2013-06-30 10:02:00,
2013-06-30 06:18:00,62.9,62.0,29.70,ENE,66,0.0,-999.0,95,-99.99,,,0.01,weatherlink.com 1.10,2013-06-30 10:18:00,
2013-06-30 06:32:00,64.0,63.0,29.71,ENE,66,0.0,-999.0,95,-99.99,,,0.01,weatherlink.com 1.10,2013-06-30 10:32:00,
2013-06-30 06:47:00,64.0,63.0,29.71,ENE,66,0.0,-999.0,95,-99.99,,,0.01,weatherlink.com 1.10,2013-06-30 10:47:00,
2013-06-30 07:02:00,63.9,63.0,29.72,ENE,66,0.0,-999.0,95,-99.99,,,0.01,weatherlink.com 1.10,2013-06-30 11:02:00,
2013-06-30 07:18:00,63.9,63.0,29.72,ENE,66,0.0,-999.0,95,-99.99,,,0.01,weatherlink.com 1.10,2013-06-30 11:18:00,
2013-06-30 07:32:00,64.3,63.0,29.73,ENE,65,0.0,-999.0,96,-99.99,,,0.01,weatherlink.com 1.10,2013-06-30 11:32:00,
2013-06-30 07:47:00,64.6,63.0,29.73,ENE,65,0.0,-999.0,95,-99.99,,,0.01,weatherlink.com 1.10,2013-06-30 11:47:00,
2013-06-30 08:02:00,64.9,64.0,29.73,ENE,65,0.0,-999.0,96,-99.99,,,0.01,weatherlink.com 1.10,2013-06-30 12:02:00,
2013-06-30 08:18:00,64.9,64.0,29.73,ENE,65,0.0,-999.0,96,-99.99,,,0.01,weatherlink.com 1.10,2013-06-30 12:18:00,
2013-06-30 08:32:00,65.9,65.0,29.74,ENE,65,0.0,-999.0,96,-99.99,,,0.01,weatherlink.com 1.10,2013-06-30 12:32:00,
2013-06-30 08:47:00,66.1,65.0,29.74,ENE,65,0.0,-999.0,96,-99.99,,,0.01,weatherlink.com 1.10,2013-06-30 12:47:00,
2013-06-30 09:02:00,66.9,66.0,29.75,ENE,65,0.0,-999.0,96,-99.99,,,0.01,weatherlink.com 1.10,2013-06-30 13:02:00,
2013-06-30 09:18:00,67.0,66.0,29.75,ENE,64,0.0,-999.0,96,-99.99,,,0.01,weatherlink.com 1.10,2013-06-30 13:18:00,
2013-06-30 09:32:00,67.9,67.0,29.75,ENE,63,0.0,-999.0,96,-99.99,,,0.01,weatherlink.com 1.10,2013-06-30 13:32:00,
2013-06-30 09:47:00,68.9,68.0,29.76,ENE,59,0.0,-999.0,95,-99.99,,,0.01,weatherlink.com 1.10,2013-06-30 13:47:00,
2013-06-30 10:02:00,70.1,68.0,29.76,NE,55,0.0,-999.0,92,-99.99,,,0.01,weatherlink.com 1.10,2013-06-30 14:02:00,
2013-06-30 10:18:00,70.2,68.0,29.76,NE,55,0.0,-999.0,91,-99.99,,,0.01,weatherlink.com 1.10,2013-06-30 14:18:00,
2013-06-30 10:32:00,72.0,68.0,29.76,NE,55,0.0,-999.0,86,-99.99,,,0.01,weatherlink.com 1.10,2013-06-30 14:32:00,
2013-06-30 10:47:00,73.5,69.0,29.75,NE,55,0.0,-999.0,85,-99.99,,,0.01,weatherlink.com 1.10,2013-06-30 14:47:00,
2013-06-30 11:02:00,74.4,69.0,29.75,NE,55,0.0,-999.0,83,-99.99,,,0.01,weatherlink.com 1.10,2013-06-30 15:02:00,
2013-06-30 11:18:00,74.7,69.0,29.75,NE,55,0.0,-999.0,81,-99.99,,,0.01,weatherlink.com 1.10,2013-06-30 15:18:00,
2013-06-30 11:32:00,75.7,69.0,29.76,NE,55,0.0,-999.0,79,-99.99,,,0.01,weatherlink.com 1.10,2013-06-30 15:32:00,
2013-06-30 11:47:00,76.2,70.0,29.76,NE,55,0.0,-999.0,80,-99.99,,,0.01,weatherlink.com 1.10,2013-06-30 15:47:00,
2013-06-30 12:02:00,76.5,68.0,29.76,NE,55,0.0,-999.0,76,-99.99,,,0.01,weatherlink.com 1.10,2013-06-30 16:02:00,
2013-06-30 12:18:00,76.4,69.0,29.76,NE,55,0.0,-999.0,78,-99.99,,,0.01,weatherlink.com 1.10,2013-06-30 16:18:00,
2013-06-30 12:32:00,77.5,68.0,29.76,NE,54,0.0,-999.0,73,-99.99,,,0.01,weatherlink.com 1.10,2013-06-30 16:32:00,
2013-06-30 12:47:00,77.7,68.0,29.76,NE,54,0.0,-999.0,73,-99.99,,,0.01,weatherlink.com 1.10,2013-06-30 16:47:00,
2013-06-30 13:02:00,78.8,68.0,29.77,NE,54,0.0,-999.0,69,-99.99,,,0.01,weatherlink.com 1.10,2013-06-30 17:02:00,
2013-06-30 13:18:00,78.1,69.0,29.77,NE,54,0.0,-999.0,73,-99.99,,,0.01,weatherlink.com 1.10,2013-06-30 17:18:00,
2013-06-30 13:33:00,78.7,67.0,29.76,NE,54,0.0,-999.0,68,-99.99,,,0.01,weatherlink.com 1.10,2013-06-30 17:33:00,
2013-06-30 13:48:00,79.6,67.0,29.76,West,273,0.0,-999.0,66,-99.99,,,0.02,weatherlink.com 1.10,2013-06-30 17:48:00,
2013-06-30 14:03:00,80.1,68.0,29.76,West,273,0.0,-999.0,66,-99.99,,,0.02,weatherlink.com 1.10,2013-06-30 18:03:00,
2013-06-30 14:19:00,80.2,67.0,29.76,West,273,0.0,-999.0,65,-99.99,,,0.02,weatherlink.com 1.10,2013-06-30 18:19:00,
2013-06-30 14:33:00,81.1,67.0,29.75,West,273,0.0,-999.0,63,-99.99,,,0.02,weatherlink.com 1.10,2013-06-30 18:33:00,
2013-06-30 14:48:00,80.8,66.0,29.75,West,273,0.0,-999.0,62,-99.99,,,0.02,weatherlink.com 1.10,2013-06-30 18:48:00,
2013-06-30 15:03:00,80.8,68.0,29.75,West,273,0.0,-999.0,66,-99.99,,,0.02,weatherlink.com 1.10,2013-06-30 19:03:00,
2013-06-30 15:19:00,81.1,66.0,29.75,West,273,0.0,-999.0,60,-99.99,,,0.02,weatherlink.com 1.10,2013-06-30 19:19:00,
2013-06-30 15:33:00,81.5,65.0,29.75,West,272,0.0,-999.0,58,-99.99,,,0.02,weatherlink.com 1.10,2013-06-30 19:33:00,
2013-06-30 22:39:00,71.6,67.0,29.82,ESE,104,0.0,-999.0,86,-99.99,,,0.02,weatherlink.com 1.10,2013-07-01 02:39:00,
2013-06-30 22:54:00,71.6,67.0,29.81,ESE,104,0.0,-999.0,86,-99.99,,,0.02,weatherlink.com 1.10,2013-07-01 02:54:00,
2013-06-30 23:09:00,71.3,67.0,29.82,ESE,104,0.0,-999.0,87,-99.99,,,0.02,weatherlink.com 1.10,2013-07-01 03:09:00,
2013-06-30 23:24:00,71.1,67.0,29.82,ESE,104,0.0,-999.0,86,-99.99,,,0.02,weatherlink.com 1.10,2013-07-01 03:24:00,
2013-06-30 23:39:00,70.8,67.0,29.81,ESE,104,0.0,-999.0,88,-99.99,,,0.02,weatherlink.com 1.10,2013-07-01 03:39:00,
2013-06-30 23:55:00,70.7,67.0,29.81,ESE,104,0.0,-999.0,88,-99.99,,,0.02,weatherlink.com 1.10,2013-07-01 03:55:00,